Time;durP1;ratioP1;P1;durP2;ratioP2;P2;SDS_P1;SDS_P2;PMS_P1;PMS_P2;Temp;Humidity;BMP_temperature;BMP_pressure;BME280_temperature;BME280_humidity;BME280_pressure;Samples;Min_cycle;Max_cycle;Signal;HPM_P1;HPM_P2
2024/01/30 00:00:26;;;;;;;62.22;31.20;;;;;;;1.84;100.00;102628.84;5031372;28;20465;-44
2024/01/30 00:02:55;;;;;;;61.42;30.13;;;;;;;1.91;100.00;102620.16;5031097;28;20045;-45
2024/01/30 00:05:23;;;;;;;62.80;29.98;;;;;;;1.88;100.00;102620.13;5030995;28;20053;-44
2024/01/30 00:07:53;;;;;;;54.08;28.52;;;;;;;1.94;100.00;102625.47;5030674;28;20064;-41
2024/01/30 00:10:21;;;;;;;59.08;29.88;;;;;;;1.93;100.00;102621.97;5031103;28;20076;-44
2024/01/30 00:12:50;;;;;;;59.25;30.45;;;;;;;1.91;100.00;102614.88;5030757;28;20091;-43
2024/01/30 00:15:21;;;;;;;56.40;30.27;;;;;;;1.93;100.00;102621.03;5031129;28;20107;-44
2024/01/30 00:17:52;;;;;;;57.00;28.95;;;;;;;1.74;100.00;102606.78;5030872;28;20491;-43
2024/01/30 00:20:21;;;;;;;62.80;30.17;;;;;;;1.85;100.00;102617.47;5030771;28;20046;-45
2024/01/30 00:22:50;;;;;;;54.45;27.55;;;;;;;1.82;100.00;102617.41;5031146;28;20046;-44
2024/01/30 00:25:20;;;;;;;53.42;28.00;;;;;;;1.78;100.00;102611.22;5030729;28;20050;-43
2024/01/30 00:27:48;;;;;;;58.33;29.85;;;;;;;1.70;100.00;102621.63;5030946;28;20057;-44
2024/01/30 00:30:18;;;;;;;58.10;29.40;;;;;;;1.66;100.00;102614.56;5030841;28;20081;-43
2024/01/30 00:32:47;;;;;;;53.53;27.15;;;;;;;1.46;100.00;102617.78;5030713;28;20052;-44
2024/01/30 00:35:15;;;;;;;54.97;28.65;;;;;;;1.62;100.00;102622.38;5033403;28;20487;-44
2024/01/30 00:37:44;;;;;;;55.00;27.75;;;;;;;1.50;100.00;102625.72;5034264;28;20073;-45
2024/01/30 00:40:15;;;;;;;53.53;27.38;;;;;;;1.46;100.00;102637.06;5034281;28;20042;-44
2024/01/30 00:42:46;;;;;;;55.03;28.98;;;;;;;1.64;100.00;102632.09;5034425;28;20546;-44
2024/01/30 00:45:15;;;;;;;55.08;28.48;;;;;;;1.65;100.00;102627.72;5034239;28;20053;-44
2024/01/30 00:47:44;;;;;;;58.72;29.17;;;;;;;1.64;100.00;102621.56;5033986;28;20041;-44
2024/01/30 00:50:13;;;;;;;57.00;28.48;;;;;;;1.58;100.00;102632.00;5034142;28;20053;-46
2024/01/30 00:52:44;;;;;;;55.28;28.63;;;;;;;1.53;100.00;102628.38;5034219;28;20136;-43
2024/01/30 00:55:14;;;;;;;53.45;28.40;;;;;;;1.57;100.00;102630.22;5034164;28;20129;-44
2024/01/30 00:57:42;;;;;;;55.08;28.13;;;;;;;1.60;100.00;102624.13;5034108;28;20079;-43
2024/01/30 01:00:16;;;;;;;54.42;27.35;;;;;;;1.53;100.00;102628.38;5033793;28;20125;-42
2024/01/30 01:02:45;;;;;;;50.13;27.60;;;;;;;1.55;100.00;102621.44;5034017;28;20058;-45
2024/01/30 01:05:14;;;;;;;58.80;28.98;;;;;;;1.57;100.00;102621.44;5033791;28;20434;-44
2024/01/30 01:07:44;;;;;;;53.50;28.58;;;;;;;1.65;100.00;102618.06;5033777;28;20054;-43
2024/01/30 01:10:13;;;;;;;54.20;27.92;;;;;;;1.61;100.00;102621.50;5033613;28;20211;-44
2024/01/30 01:12:42;;;;;;;52.08;26.27;;;;;;;1.55;100.00;102623.19;5033760;28;20081;-43
2024/01/30 01:15:12;;;;;;;49.80;27.30;;;;;;;1.59;100.00;102619.72;5033873;28;20407;-44
2024/01/30 01:17:44;;;;;;;55.67;27.70;;;;;;;1.41;100.00;102615.06;5033703;28;20049;-44
2024/01/30 01:20:13;;;;;;;53.78;27.05;;;;;;;1.40;100.00;102611.56;5016163;28;20104;-44
2024/01/30 01:22:41;;;;;;;58.88;29.33;;;;;;;1.48;100.00;102613.41;5033599;28;20049;-47
2024/01/30 01:25:14;;;;;;;53.50;27.60;;;;;;;1.52;100.00;102618.72;5033298;28;20412;-42
2024/01/30 01:27:51;;;;;;;55.00;28.20;;;;;;;1.40;100.00;102616.81;5033759;28;20073;-43
2024/01/30 01:30:21;;;;;;;53.88;28.77;;;;;;;1.40;100.00;102615.94;5033436;28;20045;-43
2024/01/30 01:32:54;;;;;;;57.38;28.83;;;;;;;1.34;100.00;102606.19;5033474;28;20052;-42
2024/01/30 01:35:24;;;;;;;;;;;;;;;1.34;100.00;102616.72;5034023;28;20049;-43
2024/01/30 01:37:54;;;;;;;59.20;28.88;;;;;;;1.34;100.00;102611.44;5033149;28;19921;-44
2024/01/30 01:40:28;;;;;;;57.38;27.73;;;;;;;1.29;100.00;102604.38;5033100;28;20446;-44
2024/01/30 01:42:56;;;;;;;55.17;28.60;;;;;;;1.06;100.00;102610.16;5033013;28;20045;-46
2024/01/30 01:45:25;;;;;;;57.20;27.75;;;;;;;1.17;100.00;102606.81;5032784;28;20302;-42
2024/01/30 01:47:55;;;;;;;54.47;28.10;;;;;;;1.09;100.00;102604.94;5033146;28;20054;-43
2024/01/30 01:50:24;;;;;;;56.45;29.92;;;;;;;1.03;100.00;102603.94;5033264;28;20103;-44
2024/01/30 01:52:53;;;;;;;55.30;29.00;;;;;;;1.12;100.00;102604.09;5033118;28;20041;-44
2024/01/30 01:55:24;;;;;;;57.17;29.25;;;;;;;1.18;100.00;102608.59;5033174;28;20091;-45
2024/01/30 01:57:56;;;;;;;58.67;28.83;;;;;;;0.98;100.00;102601.25;5032818;28;20057;-43
2024/01/30 02:00:25;;;;;;;56.22;28.95;;;;;;;1.00;100.00;102604.78;5032837;28;20120;-43
2024/01/30 02:02:55;;;;;;;61.17;29.58;;;;;;;0.94;100.00;102603.78;5032694;28;20064;-43
2024/01/30 02:05:24;;;;;;;61.78;30.15;;;;;;;0.88;100.00;102599.34;5032376;28;20502;-44
2024/01/30 02:07:53;;;;;;;60.30;31.27;;;;;;;0.75;100.00;102600.84;5032700;28;20049;-43
2024/01/30 02:10:22;;;;;;;55.00;29.33;;;;;;;0.91;100.00;102598.50;5032710;28;20463;-43
2024/01/30 02:12:50;;;;;;;58.05;30.05;;;;;;;1.05;100.00;102603.09;5033589;28;20050;-44
2024/01/30 02:15:19;;;;;;;55.45;29.08;;;;;;;1.08;100.00;102595.28;5034509;28;20056;-43
2024/01/30 02:17:48;;;;;;;56.55;29.08;;;;;;;1.06;100.00;102598.72;5032636;28;20045;-44
2024/01/30 02:20:17;;;;;;;56.60;28.75;;;;;;;1.05;100.00;102599.59;5032492;28;20147;-44
2024/01/30 02:22:49;;;;;;;57.17;29.35;;;;;;;1.15;100.00;102597.13;5032436;28;20060;-43
2024/01/30 02:25:18;;;;;;;56.95;29.63;;;;;;;1.18;100.00;102592.81;5032347;28;20052;-43
2024/01/30 02:27:47;;;;;;;60.85;29.70;;;;;;;1.23;100.00;102592.00;5032159;28;20485;-43
2024/01/30 02:30:16;;;;;;;58.90;29.50;;;;;;;1.26;100.00;102593.81;5032327;28;20046;-44
2024/01/30 02:32:44;;;;;;;58.40;30.02;;;;;;;1.22;100.00;102599.88;5031980;28;20065;-44
2024/01/30 02:35:13;;;;;;;55.28;30.50;;;;;;;1.25;100.00;102599.91;5032205;28;20041;-43
2024/01/30 02:37:44;;;;;;;62.95;30.48;;;;;;;1.19;100.00;102603.34;5032078;28;20108;-44
2024/01/30 02:40:14;;;;;;;64.38;31.30;;;;;;;1.21;100.00;102598.97;5031997;28;20495;-43
2024/01/30 02:42:42;;;;;;;63.80;30.92;;;;;;;1.05;100.00;102599.59;5031918;28;20049;-42
2024/01/30 02:45:13;;;;;;;65.47;32.45;;;;;;;1.05;100.00;102597.84;5032172;28;20045;-44
2024/01/30 02:47:42;;;;;;;61.42;31.52;;;;;;;1.15;100.00;102605.00;5031851;28;20156;-45
2024/01/30 02:50:11;;;;;;;65.13;31.17;;;;;;;1.00;100.00;102602.16;5031698;28;20056;-45
2024/01/30 02:52:40;;;;;;;57.80;30.77;;;;;;;1.10;100.00;102596.19;5031738;28;20049;-45
2024/01/30 02:55:09;;;;;;;59.45;31.23;;;;;;;1.22;100.00;102594.59;5031567;28;20056;-44
2024/01/30 02:57:39;;;;;;;59.03;30.83;;;;;;;1.33;100.00;102587.75;5031105;28;20053;-45
2024/01/30 03:00:09;;;;;;;59.25;31.63;;;;;;;1.23;100.00;102591.13;5031656;28;20061;-44
2024/01/30 03:02:40;;;;;;;60.72;30.02;;;;;;;1.21;100.00;102583.22;5031614;28;20049;-45
2024/01/30 03:05:12;;;;;;;59.40;30.98;;;;;;;1.25;100.00;102586.75;5031270;28;20045;-42
2024/01/30 03:07:41;;;;;;;61.33;30.58;;;;;;;1.20;100.00;102591.09;5031171;28;20652;-45
2024/01/30 03:10:10;;;;;;;60.92;31.08;;;;;;;1.15;100.00;102586.63;5031633;28;20103;-44
2024/01/30 03:12:40;;;;;;;66.97;32.50;;;;;;;1.20;100.00;102591.97;5031409;28;20057;-43
2024/01/30 03:15:09;;;;;;;60.45;31.38;;;;;;;1.27;100.00;102599.09;5014203;28;20231;-44
2024/01/30 03:17:38;;;;;;;64.80;32.10;;;;;;;1.28;100.00;102589.47;5031340;28;20119;-44
2024/01/30 03:20:10;;;;;;;60.15;31.42;;;;;;;1.27;100.00;102587.69;5031242;28;20392;-44
2024/01/30 03:22:38;;;;;;;60.22;32.50;;;;;;;1.30;100.00;102599.13;5031504;28;20075;-44
2024/01/30 03:25:08;;;;;;;65.35;32.95;;;;;;;1.13;100.00;102593.59;5031463;28;20090;-44
2024/01/30 03:27:36;;;;;;;67.50;33.28;;;;;;;1.07;100.00;102606.66;5031529;28;20477;-43
2024/01/30 03:30:11;;;;;;;60.55;30.83;;;;;;;1.02;100.00;102596.91;5031209;28;20056;-43
2024/01/30 03:32:39;;;;;;;62.75;32.08;;;;;;;0.78;100.00;102589.53;5031077;28;20051;-45
2024/01/30 03:35:08;;;;;;;62.72;31.60;;;;;;;0.87;100.00;102594.94;5031310;28;20046;-43
2024/01/30 03:37:37;;;;;;;60.03;32.80;;;;;;;0.72;100.00;102587.66;5031254;28;20577;-43
2024/01/30 03:40:06;;;;;;;63.30;32.35;;;;;;;0.82;100.00;102580.81;5031250;28;20049;-43
2024/01/30 03:42:35;;;;;;;57.33;30.92;;;;;;;0.92;100.00;102590.63;5031036;28;20049;-43
2024/01/30 03:45:03;;;;;;;56.00;30.95;;;;;;;0.90;100.00;102589.72;5031188;28;20118;-44
2024/01/30 03:47:33;;;;;;;69.03;32.78;;;;;;;0.85;100.00;102588.75;5031004;28;20128;-44
2024/01/30 03:50:01;;;;;;;63.28;31.98;;;;;;;0.86;100.00;102585.25;5031067;28;20464;-45
2024/01/30 03:52:30;;;;;;;62.17;31.67;;;;;;;0.87;100.00;102587.06;5031337;28;20048;-44
2024/01/30 03:55:00;;;;;;;62.50;31.88;;;;;;;0.89;100.00;102582.72;5031185;28;20473;-44
2024/01/30 03:57:28;;;;;;;68.32;33.95;;;;;;;0.86;100.00;102578.25;5030894;28;20046;-43
2024/01/30 03:59:57;;;;;;;68.25;34.25;;;;;;;0.63;100.00;102581.38;5030907;28;20446;-44
2024/01/30 04:02:28;;;;;;;64.00;31.85;;;;;;;0.77;100.00;102577.22;5031118;28;20045;-44
2024/01/30 04:04:58;;;;;;;59.88;31.08;;;;;;;0.82;100.00;102578.19;5030993;28;20056;-43
2024/01/30 04:07:29;;;;;;;60.80;31.67;;;;;;;0.82;100.00;102579.09;5031220;28;20054;-44
2024/01/30 04:10:01;;;;;;;61.60;30.95;;;;;;;0.83;100.00;102570.34;5034898;28;20088;-43
2024/01/30 04:12:30;;;;;;;60.75;31.17;;;;;;;0.81;100.00;102572.06;5034801;28;20045;-45
2024/01/30 04:14:58;;;;;;;58.88;30.95;;;;;;;1.01;100.00;102574.13;5035158;28;20128;-45
2024/01/30 04:17:28;;;;;;;60.97;31.77;;;;;;;0.90;100.00;102570.44;5035145;28;20045;-44
2024/01/30 04:19:58;;;;;;;56.22;30.33;;;;;;;0.93;100.00;102567.88;5034940;28;20041;-46
2024/01/30 04:22:30;;;;;;;66.82;31.45;;;;;;;0.93;100.00;102570.50;5035049;28;20056;-43
2024/01/30 04:25:01;;;;;;;62.38;31.05;;;;;;;0.81;100.00;102565.94;5034673;28;20099;-44
2024/01/30 04:27:30;;;;;;;55.50;30.00;;;;;;;0.82;100.00;102571.19;5035079;28;20045;-42
2024/01/30 04:29:58;;;;;;;65.75;32.05;;;;;;;0.73;100.00;102575.41;5034790;28;20089;-44
2024/01/30 04:32:27;;;;;;;60.38;30.52;;;;;;;0.79;100.00;102578.16;5034622;28;20091;-44
2024/01/30 04:34:59;;;;;;;59.65;31.60;;;;;;;0.74;100.00;102577.19;5034491;28;20139;-44
2024/01/30 04:37:28;;;;;;;60.38;31.75;;;;;;;0.63;100.00;102578.75;5034203;28;20605;-45
2024/01/30 04:39:57;;;;;;;62.03;30.42;;;;;;;0.56;100.00;102576.00;5017053;28;20045;-46
2024/01/30 04:42:27;;;;;;;60.17;30.20;;;;;;;0.46;100.00;102578.44;5033892;28;20046;-43
2024/01/30 04:44:55;;;;;;;61.35;30.23;;;;;;;0.43;100.00;102571.38;5034211;28;20053;-47
2024/01/30 04:47:23;;;;;;;55.70;29.52;;;;;;;0.41;100.00;102575.75;5034252;28;20494;-45
2024/01/30 04:49:53;;;;;;;58.20;29.55;;;;;;;0.42;100.00;102582.75;5034566;28;20053;-44
2024/01/30 04:52:23;;;;;;;60.65;30.52;;;;;;;0.32;100.00;102580.81;5034137;28;20075;-43
2024/01/30 04:54:51;;;;;;;60.92;30.83;;;;;;;0.21;100.00;102584.97;5034228;28;20050;-44
2024/01/30 04:57:22;;;;;;;56.97;29.80;;;;;;;0.15;100.00;102582.22;5036116;28;20135;-45
2024/01/30 04:59:51;;;;;;;61.78;30.45;;;;;;;0.04;100.00;102582.00;5036603;28;20083;-43
2024/01/30 05:02:19;;;;;;;64.15;31.10;;;;;;;0.02;100.00;102591.59;5037199;28;20080;-44
2024/01/30 05:04:54;;;;;;;63.08;34.00;;;;;;;-0.13;100.00;102592.16;5036493;28;20059;-48
2024/01/30 05:07:27;;;;;;;67.50;33.75;;;;;;;-0.05;100.00;102592.31;5034529;28;20045;-43
2024/01/30 05:09:55;;;;;;;64.03;33.42;;;;;;;0.02;100.00;102595.97;5034711;28;20061;-45
2024/01/30 05:12:27;;;;;;;66.63;34.00;;;;;;;0.02;100.00;102593.34;5034980;28;20053;-46
2024/01/30 05:14:56;;;;;;;65.38;33.72;;;;;;;0.11;100.00;102606.66;5034600;28;20064;-45
2024/01/30 05:17:27;;;;;;;63.20;33.72;;;;;;;0.06;100.00;102605.66;5033960;28;20478;-44
2024/01/30 05:19:58;;;;;;;;;;;;;;;-0.05;100.00;102606.31;5033637;28;20053;-45
2024/01/30 05:22:30;;;;;;;66.35;31.98;;;;;;;0.08;100.00;102611.81;5033596;28;20396;-44
2024/01/30 05:24:59;;;;;;;66.68;33.13;;;;;;;0.04;100.00;102615.25;5033577;28;20052;-45
2024/01/30 05:27:27;;;;;;;74.40;34.40;;;;;;;-0.05;100.00;102619.44;5033117;28;20107;-45
2024/01/30 05:29:55;;;;;;;64.30;33.25;;;;;;;-0.12;100.00;102620.16;5015415;28;20045;-44
2024/01/30 05:32:24;;;;;;;65.93;34.13;;;;;;;-0.03;100.00;102627.34;5033167;28;20049;-44
2024/01/30 05:34:55;;;;;;;73.57;35.15;;;;;;;-0.13;100.00;102621.00;5033579;28;20052;-44
2024/01/30 05:37:29;;;;;;;64.53;32.72;;;;;;;-0.17;100.00;102621.81;5033114;28;20083;-43
2024/01/30 05:40:01;;;;;;;;;;;;;;;-0.30;100.00;102625.88;5032867;28;20146;-44
2024/01/30 05:42:30;;;;;;;69.93;33.58;;;;;;;-0.08;100.00;102626.38;5032768;28;19928;-43
2024/01/30 05:44:58;;;;;;;71.20;34.67;;;;;;;-0.19;100.00;102633.09;5032986;28;20049;-43
2024/01/30 05:47:27;;;;;;;73.78;36.30;;;;;;;-0.11;100.00;102623.66;5032677;28;20421;-44
2024/01/30 05:49:55;;;;;;;63.67;34.17;;;;;;;-0.12;100.00;102619.28;5014848;28;20394;-44
2024/01/30 05:52:24;;;;;;;69.57;34.80;;;;;;;-0.09;100.00;102627.22;5032582;28;20065;-46
2024/01/30 05:54:52;;;;;;;69.03;34.38;;;;;;;0.02;100.00;102622.19;5033016;28;20045;-44
2024/01/30 05:57:22;;;;;;;72.05;35.95;;;;;;;-0.15;100.00;102624.47;5032631;28;20064;-45
2024/01/30 05:59:51;;;;;;;71.18;34.28;;;;;;;-0.21;100.00;102621.69;5032468;28;20144;-44
2024/01/30 06:02:20;;;;;;;70.38;33.67;;;;;;;-0.20;100.00;102629.59;5032481;28;20049;-44
2024/01/30 06:04:48;;;;;;;74.28;34.90;;;;;;;-0.26;100.00;102634.72;5032553;28;20060;-44
2024/01/30 06:07:17;;;;;;;64.72;34.13;;;;;;;-0.17;100.00;102631.41;5032331;28;20085;-45
2024/01/30 06:09:46;;;;;;;68.10;33.75;;;;;;;-0.06;100.00;102641.28;5032455;28;20099;-45
2024/01/30 06:12:15;;;;;;;63.35;33.35;;;;;;;0.07;100.00;102631.91;5032293;28;20050;-43
2024/01/30 06:14:45;;;;;;;69.72;32.50;;;;;;;0.17;100.00;102633.88;5032535;28;20053;-45
2024/01/30 06:17:15;;;;;;;66.97;32.58;;;;;;;-0.15;100.00;102633.22;5032284;28;20053;-45
2024/01/30 06:19:43;;;;;;;69.35;34.63;;;;;;;-0.13;100.00;102633.25;5032128;28;20060;-45
2024/01/30 06:22:14;;;;;;;63.53;32.42;;;;;;;-0.10;100.00;102634.19;5032178;28;20138;-45
2024/01/30 06:24:44;;;;;;;68.38;34.40;;;;;;;-0.22;100.00;102633.94;5032261;28;20060;-44
2024/01/30 06:27:13;;;;;;;66.13;33.13;;;;;;;-0.06;100.00;102636.03;5032255;28;20053;-43
2024/01/30 06:29:42;;;;;;;61.75;33.00;;;;;;;-0.44;100.00;102629.06;5032074;28;20410;-45
2024/01/30 06:32:11;;;;;;;62.22;31.35;;;;;;;-0.45;100.00;102637.78;5030974;28;20107;-44
2024/01/30 06:34:44;;;;;;;67.00;33.17;;;;;;;-0.29;100.00;102632.00;5031788;28;20049;-44
2024/01/30 06:37:12;;;;;;;60.67;30.83;;;;;;;-0.23;100.00;102637.41;5032027;28;20049;-44
2024/01/30 06:39:41;;;;;;;65.57;33.22;;;;;;;-0.13;100.00;102639.38;5031970;28;20045;-42
2024/01/30 06:42:09;;;;;;;67.13;32.03;;;;;;;0.00;100.00;102637.91;5031835;28;20095;-44
2024/01/30 06:44:38;;;;;;;56.90;30.05;;;;;;;0.15;100.00;102648.72;5031635;28;20068;-45
2024/01/30 06:47:06;;;;;;;59.40;29.40;;;;;;;0.18;100.00;102640.00;5031683;28;20045;-47
2024/01/30 06:49:39;;;;;;;51.80;28.52;;;;;;;0.15;100.00;102645.22;5031966;28;20379;-43
2024/01/30 06:52:07;;;;;;;57.63;29.50;;;;;;;0.24;100.00;102648.91;5031624;28;20111;-45
2024/01/30 06:54:36;;;;;;;55.55;29.05;;;;;;;0.30;100.00;102645.53;5031598;28;20528;-44
2024/01/30 06:57:08;;;;;;;50.97;28.00;;;;;;;0.30;100.00;102648.16;5031618;28;20050;-47
2024/01/30 06:59:43;;;;;;;53.25;27.20;;;;;;;0.22;100.00;102642.75;5031538;28;20050;-44
2024/01/30 07:02:11;;;;;;;49.08;25.67;;;;;;;0.24;100.00;102642.78;5031583;28;20049;-45
2024/01/30 07:04:44;;;;;;;57.92;27.58;;;;;;;0.37;100.00;102636.91;5031578;28;20076;-43
2024/01/30 07:07:14;;;;;;;51.38;27.70;;;;;;;0.47;100.00;102637.97;5031334;28;20045;-44
2024/01/30 07:09:44;;;;;;;56.55;28.05;;;;;;;0.66;100.00;102647.06;5031209;28;20058;-46
2024/01/30 07:12:15;;;;;;;51.60;27.55;;;;;;;0.71;100.00;102648.06;5031074;28;20140;-45
2024/01/30 07:14:43;;;;;;;55.30;28.75;;;;;;;0.83;100.00;102646.53;5031220;28;20195;-42
2024/01/30 07:17:12;;;;;;;52.50;27.45;;;;;;;0.79;100.00;102641.22;5031126;28;20064;-44
2024/01/30 07:19:42;;;;;;;52.40;26.08;;;;;;;0.84;100.00;102655.31;5030725;28;20052;-43
2024/01/30 07:22:13;;;;;;;47.40;25.00;;;;;;;0.95;100.00;102650.22;5030877;28;20125;-45
2024/01/30 07:24:47;;;;;;;53.63;26.05;;;;;;;0.80;100.00;102646.50;5030988;28;20162;-43
2024/01/30 07:27:17;;;;;;;48.10;24.20;;;;;;;0.74;100.00;102653.38;5031150;28;20051;-44
2024/01/30 07:29:46;;;;;;;45.40;24.13;;;;;;;0.83;100.00;102649.16;5031257;28;20406;-43
2024/01/30 07:32:18;;;;;;;48.13;24.80;;;;;;;0.74;100.00;102645.47;5031053;28;20049;-44
2024/01/30 07:34:52;;;;;;;45.78;23.33;;;;;;;0.66;100.00;102644.44;5030878;28;20470;-43
2024/01/30 07:37:35;;;;;;;43.65;22.83;;;;;;;0.80;100.00;102643.88;5030622;28;20065;-43
2024/01/30 07:40:04;;;;;;;46.75;23.40;;;;;;;0.88;100.00;102636.13;5030628;28;20168;-44
2024/01/30 07:42:35;;;;;;;50.17;24.27;;;;;;;0.85;100.00;102641.31;5031730;28;20395;-45
2024/01/30 07:45:05;;;;;;;46.60;25.08;;;;;;;1.00;100.00;102641.59;5037143;28;20727;-44
2024/01/30 07:47:34;;;;;;;48.20;24.60;;;;;;;1.14;100.00;102637.44;5036737;28;20205;-44
2024/01/30 07:50:08;;;;;;;56.17;25.05;;;;;;;1.32;100.00;102643.84;5037247;28;20049;-44
2024/01/30 07:52:37;;;;;;;49.17;25.40;;;;;;;1.45;100.00;102635.31;5037147;28;20159;-44
2024/01/30 07:58:13;;;;;;;54.42;26.98;;;;;;;1.06;100.00;102627.63;5036859;28;20111;-44
2024/01/30 08:00:41;;;;;;;56.35;29.35;;;;;;;1.33;100.00;102640.34;5036954;28;20053;-44
2024/01/30 08:03:10;;;;;;;60.30;31.58;;;;;;;1.38;100.00;102638.69;5019124;28;20067;-45
2024/01/30 08:05:40;;;;;;;67.57;33.38;;;;;;;1.30;100.00;102635.06;5037133;28;20049;-44
2024/01/30 08:08:08;;;;;;;69.65;34.42;;;;;;;1.48;100.00;102637.97;5019782;28;20159;-43
2024/01/30 08:10:37;;;;;;;73.43;34.42;;;;;;;1.61;100.00;102639.91;5036790;28;20099;-43
2024/01/30 08:13:05;;;;;;;71.22;33.33;;;;;;;1.67;100.00;102642.66;5037051;28;20057;-42
2024/01/30 08:15:33;;;;;;;60.00;32.22;;;;;;;1.48;100.00;102639.72;5036899;28;20410;-45
2024/01/30 08:18:06;;;;;;;57.25;30.55;;;;;;;1.49;100.00;102639.75;5037079;28;20197;-44
2024/01/30 08:20:35;;;;;;;59.03;30.98;;;;;;;1.66;100.00;102638.25;5037006;28;20133;-44
2024/01/30 08:23:05;;;;;;;56.20;29.73;;;;;;;1.93;100.00;102644.72;5037208;28;20128;-43
2024/01/30 08:25:33;;;;;;;51.85;27.60;;;;;;;1.80;100.00;102648.97;5037128;28;20049;-44
2024/01/30 08:28:01;;;;;;;49.45;28.02;;;;;;;1.99;100.00;102640.44;5037443;28;20045;-45
2024/01/30 08:30:30;;;;;;;51.88;29.10;;;;;;;1.87;100.00;102644.69;5037150;28;20514;-44
2024/01/30 08:33:01;;;;;;;54.15;29.55;;;;;;;1.91;100.00;102646.47;5037026;28;20395;-46
2024/01/30 08:35:33;;;;;;;51.75;28.63;;;;;;;1.99;100.00;102647.47;5036908;28;20252;-42
2024/01/30 08:38:17;;;;;;;51.53;28.05;;;;;;;2.05;100.00;102641.41;5036641;28;20477;-43
2024/01/30 08:40:46;;;;;;;56.50;29.48;;;;;;;2.14;100.00;102652.94;5021143;28;20347;-44
2024/01/30 08:43:15;;;;;;;52.35;28.25;;;;;;;2.40;100.00;102647.09;5018682;28;20072;-45
2024/01/30 08:45:44;;;;;;;58.83;30.40;;;;;;;2.13;100.00;102659.06;5036578;28;20041;-47
2024/01/30 08:48:12;;;;;;;55.85;29.00;;;;;;;2.28;100.00;102648.72;5036743;28;20045;-44
2024/01/30 08:50:45;;;;;;;48.95;27.38;;;;;;;2.44;100.00;102654.16;5036640;28;20533;-44
2024/01/30 08:53:14;;;;;;;52.35;28.67;;;;;;;2.28;100.00;102659.25;5036331;28;20049;-50
2024/01/30 08:55:46;;;;;;;48.43;27.10;;;;;;;2.47;100.00;102649.81;5033060;28;20053;-43
2024/01/30 08:58:15;;;;;;;53.85;28.17;;;;;;;2.58;100.00;102642.91;5033707;28;20053;-44
2024/01/30 09:00:43;;;;;;;49.40;26.27;;;;;;;2.69;100.00;102639.50;5033266;28;20498;-43
2024/01/30 09:03:12;;;;;;;48.80;26.05;;;;;;;2.88;100.00;102647.59;5033412;28;20092;-42
2024/01/30 09:05:40;;;;;;;48.30;26.05;;;;;;;3.04;100.00;102631.94;5015799;28;20471;-43
2024/01/30 09:08:09;;;;;;;43.58;24.40;;;;;;;3.13;100.00;102639.94;5033405;28;20049;-41
2024/01/30 09:10:44;;;;;;;42.78;24.55;;;;;;;3.29;100.00;102639.19;5033288;28;20092;-44
2024/01/30 09:13:15;;;;;;;49.55;25.65;;;;;;;3.30;100.00;102635.69;5033030;28;20054;-44
2024/01/30 09:15:47;;;;;;;46.50;26.10;;;;;;;3.26;100.00;102633.88;5032963;28;20526;-45
2024/01/30 09:18:15;;;;;;;48.28;25.70;;;;;;;3.30;100.00;102633.03;5033104;28;20052;-47
2024/01/30 09:20:45;;;;;;;45.42;26.35;;;;;;;3.40;100.00;102628.72;5033103;28;20136;-44
2024/01/30 09:23:13;;;;;;;49.85;26.23;;;;;;;3.34;100.00;102632.16;5033000;28;20046;-42
2024/01/30 09:25:44;;;;;;;46.22;25.63;;;;;;;3.13;100.00;102627.63;5033388;28;20455;-50
2024/01/30 09:28:12;;;;;;;50.08;25.55;;;;;;;2.98;100.00;102631.88;5033054;28;20390;-43
2024/01/30 09:30:40;;;;;;;44.33;24.63;;;;;;;3.07;100.00;102631.94;5033412;28;20407;-45
2024/01/30 09:33:09;;;;;;;46.70;26.10;;;;;;;3.15;100.00;102630.25;5032895;28;20054;-42
2024/01/30 09:35:37;;;;;;;44.78;24.60;;;;;;;3.30;100.00;102630.41;5033017;28;20494;-43
2024/01/30 09:38:05;;;;;;;45.60;24.67;;;;;;;3.45;100.00;102632.25;5032871;28;20379;-44
2024/01/30 09:40:34;;;;;;;47.25;24.85;;;;;;;3.55;100.00;102631.44;5032563;28;20061;-43
2024/01/30 09:43:05;;;;;;;43.33;22.95;;;;;;;3.70;100.00;102630.66;5032448;28;20570;-44
2024/01/30 09:45:34;;;;;;;44.20;23.73;;;;;;;3.81;100.00;102634.25;5032888;28;20107;-43
2024/01/30 09:48:02;;;;;;;43.92;24.23;;;;;;;3.86;100.00;102626.34;5032737;28;20045;-44
2024/01/30 09:50:36;;;;;;;48.75;25.23;;;;;;;3.72;100.00;102628.91;5031384;28;20402;-43
2024/01/30 09:53:05;;;;;;;42.30;24.58;;;;;;;3.79;100.00;102625.44;5032569;28;20164;-43
2024/01/30 09:55:34;;;;;;;44.20;24.80;;;;;;;3.92;100.00;102629.00;5032733;28;20049;-43
2024/01/30 09:58:03;;;;;;;45.90;24.17;;;;;;;3.94;100.00;102630.78;5032538;28;20399;-50
2024/01/30 10:00:32;;;;;;;40.45;23.05;;;;;;;3.98;100.00;102629.94;5032521;28;20054;-43
2024/01/30 10:03:00;;;;;;;41.10;20.63;;;;;;;3.92;100.00;102626.38;5031634;28;20046;-43
2024/01/30 10:05:29;;;;;;;39.75;20.70;;;;;;;4.01;100.00;102616.75;5030867;28;20045;-42
2024/01/30 10:07:58;;;;;;;33.50;18.27;;;;;;;4.35;100.00;102622.16;5032336;28;20124;-42
2024/01/30 10:10:27;;;;;;;37.20;20.67;;;;;;;4.47;100.00;102624.84;5032289;28;20121;-42
2024/01/30 10:12:56;;;;;;;34.33;19.60;;;;;;;4.34;100.00;102630.94;5032111;28;20076;-43
2024/01/30 10:15:28;;;;;;;38.70;19.45;;;;;;;4.50;100.00;102626.59;5032270;28;20049;-44
2024/01/30 10:17:57;;;;;;;34.67;19.83;;;;;;;4.25;100.00;102621.25;5031007;28;20045;-43
2024/01/30 10:20:26;;;;;;;34.67;19.05;;;;;;;4.18;100.00;102618.56;5031731;28;20046;-43
2024/01/30 10:22:54;;;;;;;36.42;20.25;;;;;;;3.97;100.00;102617.63;5032136;28;20045;-43
2024/01/30 10:25:23;;;;;;;37.20;20.85;;;;;;;4.16;100.00;102609.78;5031828;28;20053;-43
2024/01/30 10:27:54;;;;;;;36.10;19.63;;;;;;;4.51;100.00;102605.44;5031790;28;20568;-45
2024/01/30 10:30:23;;;;;;;39.33;21.08;;;;;;;4.54;100.00;102610.78;5031687;28;20519;-44
2024/01/30 10:32:53;;;;;;;41.67;19.85;;;;;;;4.52;100.00;102604.56;5046494;28;20106;-43
2024/01/30 10:35:24;;;;;;;35.35;18.52;;;;;;;4.68;100.00;102604.63;5040955;28;20050;-43
2024/01/30 10:37:53;;;;;;;35.45;19.27;;;;;;;4.69;100.00;102598.44;5033540;28;20056;-44
2024/01/30 10:40:22;;;;;;;35.25;19.23;;;;;;;4.49;100.00;102594.00;5051638;28;20049;-43
2024/01/30 10:42:55;;;;;;;32.83;18.88;;;;;;;4.74;100.00;102589.66;5051448;28;20088;-43
2024/01/30 10:45:25;;;;;;;37.00;19.73;;;;;;;4.96;100.00;102589.66;5052034;28;20061;-44
2024/01/30 10:47:57;;;;;;;35.92;19.30;;;;;;;5.13;100.00;102580.84;5054405;28;20056;-44
2024/01/30 10:50:26;;;;;;;34.70;19.80;;;;;;;5.34;100.00;102573.75;5054787;28;20056;-43
2024/01/30 10:52:55;;;;;;;34.30;18.70;;;;;;;5.15;100.00;102571.13;5054913;28;20466;-44
2024/01/30 10:55:25;;;;;;;34.13;17.60;;;;;;;5.30;100.00;102566.69;5051467;28;20573;-44
2024/01/30 10:57:53;;;;;;;29.92;16.90;;;;;;;5.47;100.00;102562.25;5051023;28;20111;-43
2024/01/30 11:00:24;;;;;;;29.98;17.08;;;;;;;5.61;100.00;102560.47;5050902;28;20045;-43
2024/01/30 11:02:53;;;;;;;30.90;16.85;;;;;;;5.49;100.00;102557.81;5051397;28;20126;-46
2024/01/30 11:05:26;;;;;;;32.22;16.27;;;;;;;5.55;100.00;102557.81;5051145;28;20056;-43
2024/01/30 11:08:11;;;;;;;31.63;17.00;;;;;;;5.68;100.00;102554.22;5051361;28;20052;-45
2024/01/30 11:10:57;;;;;;;28.55;17.35;;;;;;;5.68;100.00;102548.94;5050988;28;20139;-44
2024/01/30 11:13:28;;;;;;;32.55;17.50;;;;;;;5.54;100.00;102556.06;5050818;28;20560;-44
2024/01/30 11:16:01;;;;;;;28.38;16.85;;;;;;;5.63;100.00;102553.38;5050964;28;20052;-42
2024/01/30 11:18:31;;;;;;;28.33;16.80;;;;;;;5.75;100.00;102548.03;5050453;28;20040;-44
2024/01/30 11:21:06;;;;;;;27.83;15.00;;;;;;;5.69;100.00;102540.13;5050760;28;20376;-44
2024/01/30 11:23:36;;;;;;;26.23;15.40;;;;;;;5.84;100.00;102540.94;5051127;28;20061;-43